createdAt,value
2018-09-05T00:00:43.649Z,100.00
2018-09-05T00:03:12.195Z,100.00
2018-09-05T00:05:40.761Z,100.00
2018-09-05T00:08:10.303Z,100.00
2018-09-05T00:10:38.825Z,100.00
2018-09-05T00:13:07.388Z,100.00
2018-09-05T00:15:35.929Z,100.00
2018-09-05T00:18:04.463Z,100.00
2018-09-05T00:20:33.006Z,100.00
2018-09-05T00:23:01.549Z,100.00
2018-09-05T00:25:30.086Z,100.00
2018-09-05T00:27:58.620Z,100.00
2018-09-05T00:30:27.159Z,100.00
2018-09-05T00:32:55.719Z,100.00
2018-09-05T00:35:24.228Z,100.00
2018-09-05T00:37:52.765Z,100.00
2018-09-05T00:40:21.371Z,100.00
2018-09-05T00:42:49.913Z,100.00
2018-09-05T00:45:18.470Z,100.00
2018-09-05T00:47:47.008Z,100.00
2018-09-05T00:50:15.533Z,100.00
2018-09-05T00:52:44.068Z,100.00
2018-09-05T00:55:13.580Z,100.00
2018-09-05T00:57:42.104Z,100.00
2018-09-05T01:00:10.720Z,100.00
2018-09-05T01:02:39.236Z,100.00
2018-09-05T01:05:07.852Z,100.00
2018-09-05T01:07:36.506Z,100.00
2018-09-05T01:10:05.073Z,100.00
2018-09-05T01:12:34.619Z,100.00
2018-09-05T01:15:04.134Z,100.00
2018-09-05T01:17:32.667Z,100.00
2018-09-05T01:20:03.141Z,100.00
2018-09-05T01:22:31.664Z,100.00
2018-09-05T01:25:00.212Z,100.00
2018-09-05T01:27:28.755Z,100.00
2018-09-05T01:29:57.292Z,100.00
2018-09-05T01:32:25.839Z,100.00
2018-09-05T01:34:54.364Z,100.00
2018-09-05T01:37:22.919Z,100.00
2018-09-05T01:39:51.468Z,100.00
2018-09-05T01:42:20.944Z,100.00
2018-09-05T01:44:49.486Z,100.00
2018-09-05T01:47:18.022Z,100.00
2018-09-05T01:49:46.575Z,100.00
2018-09-05T01:52:15.100Z,100.00
2018-09-05T01:54:43.640Z,100.00
2018-09-05T01:57:12.211Z,100.00
2018-09-05T01:59:41.693Z,100.00
2018-09-05T02:02:10.238Z,100.00
2018-09-05T02:04:38.764Z,100.00
2018-09-05T02:07:07.316Z,100.00
2018-09-05T02:09:35.847Z,100.00
2018-09-05T02:14:09.467Z,100.00
2018-09-05T02:16:38.531Z,100.00
2018-09-05T02:19:07.863Z,100.00
2018-09-05T02:24:12.640Z,100.00
2018-09-05T02:26:41.784Z,100.00
2018-09-05T02:29:10.853Z,100.00
2018-09-05T02:31:41.866Z,100.00
2018-09-05T02:34:10.935Z,100.00
2018-09-05T02:36:40.018Z,100.00
2018-09-05T02:39:09.081Z,100.00
2018-09-05T02:44:13.933Z,100.00
2018-09-05T02:49:18.764Z,100.00
2018-09-05T02:56:59.538Z,100.00
2018-09-05T02:59:28.590Z,100.00
2018-09-05T03:01:57.669Z,100.00
2018-09-05T03:04:26.741Z,100.00
2018-09-05T03:06:59.035Z,100.00
2018-09-05T03:09:30.107Z,100.00
2018-09-05T03:11:59.196Z,100.00
2018-09-05T03:14:28.309Z,100.00
2018-09-05T03:19:33.153Z,100.00
2018-09-05T03:22:02.226Z,100.00
2018-09-05T03:27:07.001Z,100.00
2018-09-05T03:34:47.502Z,100.00
2018-09-05T03:39:52.351Z,100.00
2018-09-05T03:42:21.433Z,100.00
2018-09-05T03:44:51.486Z,100.00
2018-09-05T03:47:20.569Z,100.00
2018-09-05T03:49:49.746Z,100.00
2018-09-05T03:52:19.777Z,100.00
2018-09-05T03:54:50.805Z,100.00
2018-09-05T03:59:57.523Z,100.00
2018-09-05T04:02:26.613Z,100.00
2018-09-05T04:04:55.754Z,100.00
2018-09-05T04:10:00.493Z,100.00
2018-09-05T04:12:29.562Z,100.00
2018-09-05T04:17:35.261Z,100.00
2018-09-05T04:22:40.117Z,100.00
2018-09-05T04:25:09.202Z,100.00
2018-09-05T04:27:38.313Z,100.00
2018-09-05T04:32:43.155Z,100.00
2018-09-05T04:35:12.247Z,100.00
2018-09-05T04:37:41.314Z,100.00
2018-09-05T04:40:11.351Z,100.00
2018-09-05T04:42:40.423Z,100.00
2018-09-05T04:45:09.542Z,100.00
2018-09-05T04:47:38.566Z,100.00
2018-09-05T04:50:07.657Z,100.00
2018-09-05T04:52:36.960Z,100.00
2018-09-05T04:55:06.015Z,100.00
2018-09-05T04:57:36.101Z,100.00
2018-09-05T05:00:05.277Z,100.00
2018-09-05T05:02:34.356Z,100.00
2018-09-05T05:05:03.469Z,100.00
2018-09-05T05:07:32.517Z,100.00
2018-09-05T05:10:01.586Z,100.00
2018-09-05T05:12:30.760Z,100.00
2018-09-05T05:14:59.769Z,100.00
2018-09-05T05:20:04.945Z,100.00
2018-09-05T05:22:34.176Z,100.00
2018-09-05T05:25:08.758Z,100.00
2018-09-05T05:27:38.773Z,100.00
2018-09-05T05:32:43.565Z,100.00
2018-09-05T05:35:12.638Z,100.00
2018-09-05T05:37:46.276Z,100.00
2018-09-05T05:40:16.435Z,100.00
2018-09-05T05:42:45.532Z,100.00
2018-09-05T05:45:15.033Z,100.00
2018-09-05T05:50:22.828Z,100.00
2018-09-05T05:52:51.943Z,100.00
2018-09-05T05:55:21.003Z,100.00
2018-09-05T05:58:06.379Z,100.00
2018-09-05T06:00:51.086Z,100.00
2018-09-05T06:03:32.608Z,100.00
2018-09-05T06:06:02.452Z,100.00
2018-09-05T06:11:07.277Z,100.00
2018-09-05T06:21:24.631Z,100.00
2018-09-05T06:23:53.752Z,100.00
2018-09-05T06:26:22.962Z,100.00
2018-09-05T06:28:52.037Z,100.00
2018-09-05T06:31:21.267Z,100.00
2018-09-05T06:33:50.313Z,100.00
2018-09-05T06:38:56.158Z,100.00
2018-09-05T06:41:25.161Z,100.00
2018-09-05T06:43:54.225Z,100.00
2018-09-05T06:46:24.273Z,100.00
2018-09-05T06:48:53.780Z,100.00
2018-09-05T06:51:22.951Z,100.00
2018-09-05T06:59:04.003Z,100.00
2018-09-05T07:01:33.104Z,100.00
2018-09-05T07:04:02.232Z,100.00
2018-09-05T07:06:31.638Z,100.00
2018-09-05T07:09:00.817Z,100.00
2018-09-05T07:11:29.881Z,100.00
2018-09-05T07:13:59.196Z,100.00
2018-09-05T07:16:30.127Z,100.00
2018-09-05T07:18:59.280Z,100.00
2018-09-05T07:21:29.305Z,100.00
2018-09-05T07:23:58.246Z,100.00
2018-09-05T07:29:03.132Z,100.00
2018-09-05T07:31:34.165Z,100.00
2018-09-05T07:34:03.226Z,100.00
2018-09-05T07:36:32.294Z,100.00
2018-09-05T07:39:03.349Z,100.00
2018-09-05T07:41:32.396Z,100.00
2018-09-05T07:44:02.493Z,100.00
2018-09-05T07:46:31.541Z,100.00
2018-09-05T07:49:00.594Z,100.00
2018-09-05T07:51:29.759Z,100.00
2018-09-05T07:53:58.825Z,100.00
2018-09-05T07:56:29.839Z,100.00
2018-09-05T07:59:02.907Z,99.23
2018-09-05T08:01:32.120Z,97.42
2018-09-05T08:04:02.126Z,97.72
2018-09-05T08:06:31.172Z,93.64
2018-09-05T08:09:01.146Z,97.51
2018-09-05T08:11:32.207Z,93.42
2018-09-05T08:14:05.079Z,95.42
2018-09-05T08:16:34.123Z,93.23
2018-09-05T08:19:03.174Z,94.78
2018-09-05T08:21:32.268Z,94.25
2018-09-05T08:24:01.332Z,91.53
2018-09-05T08:26:30.357Z,90.56
2018-09-05T08:31:35.146Z,88.06
2018-09-05T08:34:07.611Z,87.48
2018-09-05T08:36:40.508Z,90.15
2018-09-05T08:39:10.397Z,86.18
2018-09-05T08:41:44.138Z,87.14
2018-09-05T08:44:14.384Z,86.47
2018-09-05T08:46:43.356Z,82.29
2018-09-05T08:49:12.354Z,80.76
2018-09-05T08:51:42.338Z,85.06
2018-09-05T08:54:11.401Z,83.72
2018-09-05T08:56:40.441Z,79.89
2018-09-05T08:59:09.497Z,72.38
2018-09-05T09:01:38.547Z,70.52
2018-09-05T09:04:07.590Z,64.77
2018-09-05T09:06:36.657Z,57.43
2018-09-05T09:09:06.665Z,59.25
2018-09-05T09:11:35.737Z,61.40
2018-09-05T09:16:41.546Z,58.75
2018-09-05T09:19:11.565Z,51.07
2018-09-05T09:21:40.715Z,52.76
2018-09-05T09:24:10.689Z,47.18
2018-09-05T09:26:39.801Z,48.42
2018-09-05T09:29:08.890Z,43.29
2018-09-05T09:31:37.938Z,45.66
2018-09-05T09:34:07.018Z,52.50
2018-09-05T09:36:36.080Z,49.80
2018-09-05T09:39:09.058Z,38.81
2018-09-05T09:41:38.114Z,45.98
2018-09-05T09:44:07.154Z,48.54
2018-09-05T09:46:36.247Z,37.86
2018-09-05T09:49:06.280Z,45.85
2018-09-05T09:51:35.473Z,40.55
2018-09-05T09:54:04.521Z,42.03
2018-09-05T09:56:33.616Z,36.00
2018-09-05T09:59:02.669Z,37.00
2018-09-05T10:01:31.701Z,38.16
2018-09-05T10:06:36.561Z,46.39
2018-09-05T10:09:05.641Z,41.44
2018-09-05T10:11:34.694Z,44.60
2018-09-05T10:14:04.824Z,41.42
2018-09-05T10:16:38.395Z,39.31
2018-09-05T10:19:07.463Z,38.12
2018-09-05T10:21:36.619Z,40.80
2018-09-05T10:24:05.660Z,37.50
2018-09-05T10:26:35.703Z,37.54
2018-09-05T10:29:06.865Z,37.80
2018-09-05T10:34:13.821Z,36.83
2018-09-05T10:36:42.906Z,32.51
2018-09-05T10:39:12.110Z,32.25
2018-09-05T10:41:41.196Z,30.27
2018-09-05T10:44:10.279Z,34.25
2018-09-05T10:46:39.331Z,34.69
2018-09-05T10:49:08.394Z,38.83
2018-09-05T10:51:37.476Z,38.82
2018-09-05T10:54:06.561Z,33.79
2018-09-05T10:56:35.702Z,32.91
2018-09-05T10:59:05.754Z,28.63
2018-09-05T11:01:39.185Z,36.57
2018-09-05T11:06:44.266Z,32.92
2018-09-05T11:09:13.567Z,32.41
2018-09-05T11:11:42.650Z,29.89
2018-09-05T11:14:12.714Z,32.29
2018-09-05T11:16:41.833Z,28.62
2018-09-05T11:19:10.890Z,30.74
2018-09-05T11:21:39.971Z,35.81
2018-09-05T11:24:09.056Z,37.96
2018-09-05T11:26:38.109Z,34.32
2018-09-05T11:29:07.211Z,32.02
2018-09-05T11:31:36.300Z,29.16
2018-09-05T11:34:05.366Z,30.03
2018-09-05T11:36:34.444Z,30.30
2018-09-05T11:41:39.216Z,27.65
2018-09-05T11:44:08.271Z,29.55
2018-09-05T11:46:37.341Z,32.15
2018-09-05T11:49:06.419Z,37.96
2018-09-05T11:51:35.464Z,34.37
2018-09-05T11:54:04.545Z,30.35
2018-09-05T11:56:34.585Z,28.51
2018-09-05T12:01:39.470Z,28.40
2018-09-05T12:04:08.589Z,27.07
2018-09-05T12:06:38.362Z,28.62
2018-09-05T12:09:07.427Z,39.49
2018-09-05T12:11:36.490Z,32.38
2018-09-05T12:14:05.554Z,37.56
2018-09-05T12:19:10.417Z,33.73
2018-09-05T12:21:40.410Z,30.79
2018-09-05T12:24:13.518Z,31.35
2018-09-05T12:29:18.381Z,29.80
2018-09-05T12:31:48.909Z,27.16
2018-09-05T12:34:17.996Z,35.32
2018-09-05T12:36:48.005Z,31.92
2018-09-05T12:39:17.059Z,25.75
2018-09-05T12:41:46.185Z,27.00
2018-09-05T12:44:15.862Z,25.30
2018-09-05T12:46:44.938Z,24.44
2018-09-05T12:49:14.006Z,23.12
2018-09-05T12:51:43.061Z,23.52
2018-09-05T12:54:12.135Z,22.76
2018-09-05T12:56:41.631Z,29.99
2018-09-05T12:59:11.725Z,31.14
2018-09-05T13:01:40.933Z,29.15
2018-09-05T13:04:10.048Z,23.73
2018-09-05T13:06:39.156Z,25.25
2018-09-05T13:09:08.401Z,26.53
2018-09-05T13:11:40.832Z,27.99
2018-09-05T13:14:11.988Z,25.46
2018-09-05T13:16:41.087Z,25.36
2018-09-05T13:19:10.182Z,26.70
2018-09-05T13:21:39.256Z,26.18
2018-09-05T13:24:08.387Z,24.56
2018-09-05T13:26:37.520Z,24.63
2018-09-05T13:29:06.522Z,29.57
2018-09-05T13:34:11.494Z,35.58
2018-09-05T13:36:40.554Z,33.88
2018-09-05T13:39:09.676Z,31.12
2018-09-05T13:41:38.758Z,29.86
2018-09-05T13:46:43.593Z,28.98
2018-09-05T13:49:12.648Z,30.45
2018-09-05T13:51:41.780Z,30.59
2018-09-05T13:54:17.094Z,31.54
2018-09-05T13:59:22.003Z,31.95
2018-09-05T14:01:53.021Z,30.75
2018-09-05T14:04:22.084Z,27.87
2018-09-05T14:06:51.145Z,30.23
2018-09-05T14:09:20.216Z,29.30
2018-09-05T14:11:49.289Z,26.96
2018-09-05T14:14:18.353Z,28.52
2018-09-05T14:16:47.421Z,28.35
2018-09-05T14:19:16.516Z,30.77
2018-09-05T14:21:45.810Z,29.15
2018-09-05T14:24:15.824Z,29.97
2018-09-05T14:26:48.122Z,32.25
2018-09-05T14:29:17.189Z,32.91
2018-09-05T14:31:46.245Z,31.60
2018-09-05T14:34:15.586Z,31.66
2018-09-05T14:36:44.640Z,35.46
2018-09-05T14:39:14.637Z,45.63
2018-09-05T14:41:43.697Z,42.50
2018-09-05T14:44:12.849Z,43.26
2018-09-05T14:46:41.884Z,38.52
2018-09-05T14:49:10.940Z,38.19
2018-09-05T14:51:40.010Z,35.49
2018-09-05T14:54:09.292Z,32.22
2018-09-05T14:56:40.229Z,35.55
2018-09-05T14:59:09.277Z,32.26
2018-09-05T15:01:38.348Z,32.13
2018-09-05T15:04:07.458Z,32.99
2018-09-05T15:06:42.096Z,31.41
2018-09-05T15:09:11.161Z,32.26
2018-09-05T15:11:40.237Z,31.54
2018-09-05T15:14:09.380Z,35.47
2018-09-05T15:16:38.434Z,35.03
2018-09-05T15:19:07.494Z,33.86
2018-09-05T15:21:36.549Z,32.15
2018-09-05T15:26:42.398Z,31.73
2018-09-05T15:29:11.475Z,31.83
2018-09-05T15:31:40.530Z,34.85
2018-09-05T15:36:45.574Z,42.39
2018-09-05T15:39:14.671Z,43.14
2018-09-05T15:41:43.696Z,45.38
2018-09-05T15:46:48.601Z,42.89
2018-09-05T15:49:19.688Z,42.26
2018-09-05T15:51:48.744Z,46.22
2018-09-05T15:54:18.000Z,45.13
2018-09-05T15:56:47.060Z,44.17
2018-09-05T16:04:27.637Z,42.67
2018-09-05T16:06:56.729Z,47.84
2018-09-05T16:09:25.926Z,47.88
2018-09-05T16:11:54.999Z,48.44
2018-09-05T16:14:24.056Z,51.25
2018-09-05T16:16:55.765Z,50.78
2018-09-05T16:19:24.797Z,50.79
2018-09-05T16:21:53.954Z,51.16
2018-09-05T16:24:22.948Z,51.31
2018-09-05T16:26:52.015Z,51.78
2018-09-05T16:29:21.075Z,52.08
2018-09-05T16:31:51.062Z,53.22
2018-09-05T16:34:20.121Z,55.46
2018-09-05T16:36:49.290Z,55.56
2018-09-05T16:41:54.318Z,57.53
2018-09-05T16:44:23.375Z,57.01
2018-09-05T16:46:53.324Z,58.65
2018-09-05T16:51:58.144Z,60.47
2018-09-05T16:54:31.765Z,63.48
2018-09-05T16:57:00.829Z,64.11
2018-09-05T16:59:29.887Z,62.69
2018-09-05T17:01:58.931Z,65.47
2018-09-05T17:07:03.697Z,66.98
2018-09-05T17:09:33.108Z,66.96
2018-09-05T17:12:02.238Z,65.06
2018-09-05T17:14:31.287Z,70.15
2018-09-05T17:17:00.359Z,66.52
2018-09-05T17:19:29.429Z,67.53
2018-09-05T17:21:58.510Z,70.77
2018-09-05T17:24:27.638Z,68.62
2018-09-05T17:32:08.310Z,70.26
2018-09-05T17:34:37.375Z,71.69
2018-09-05T17:39:42.253Z,72.93
2018-09-05T17:42:11.323Z,76.94
2018-09-05T17:44:41.332Z,79.15
2018-09-05T17:47:12.393Z,79.07
2018-09-05T17:49:41.457Z,82.52
2018-09-05T17:54:47.207Z,78.46
2018-09-05T17:57:16.304Z,75.59
2018-09-05T18:02:22.143Z,76.35
2018-09-05T18:04:51.215Z,76.00
2018-09-05T18:09:56.015Z,81.52
2018-09-05T18:12:25.045Z,88.88
2018-09-05T18:17:29.941Z,85.30
2018-09-05T18:19:58.992Z,91.03
2018-09-05T18:22:28.053Z,89.35
2018-09-05T18:24:57.107Z,87.37
2018-09-05T18:30:01.907Z,86.68
2018-09-05T18:35:06.772Z,88.20
2018-09-05T18:37:35.834Z,90.13
2018-09-05T18:40:04.889Z,91.87
2018-09-05T18:42:33.949Z,90.68
2018-09-05T18:47:44.701Z,90.93
2018-09-05T18:50:14.058Z,93.93
2018-09-05T18:52:43.162Z,92.06
2018-09-05T18:55:12.260Z,95.97
2018-09-05T18:57:43.266Z,96.90
2018-09-05T19:00:12.371Z,97.67
2018-09-05T19:02:41.558Z,97.62
2018-09-05T19:07:47.446Z,90.08
2018-09-05T19:10:16.496Z,89.25
2018-09-05T19:12:45.568Z,96.10
2018-09-05T19:17:50.409Z,90.99
2018-09-05T19:20:19.495Z,96.60
2018-09-05T19:22:48.627Z,100.00
2018-09-05T19:25:19.633Z,100.00
2018-09-05T19:27:50.683Z,99.84
2018-09-05T19:30:19.755Z,100.00
2018-09-05T19:32:48.827Z,100.00
2018-09-05T19:35:19.833Z,100.00
2018-09-05T19:37:48.922Z,100.00
2018-09-05T19:40:18.947Z,100.00
2018-09-05T19:42:48.024Z,99.02
2018-09-05T19:45:17.085Z,99.06
2018-09-05T19:47:46.141Z,100.00
2018-09-05T19:50:15.237Z,100.00
2018-09-05T19:52:45.299Z,100.00
2018-09-05T19:55:14.361Z,100.00
2018-09-05T19:57:43.418Z,100.00
2018-09-05T20:00:12.491Z,100.00
2018-09-05T20:02:41.562Z,100.00
2018-09-05T20:05:10.631Z,100.00
2018-09-05T20:07:39.710Z,100.00
2018-09-05T20:10:08.781Z,100.00
2018-09-05T20:12:37.853Z,100.00
2018-09-05T20:15:07.882Z,100.00
2018-09-05T20:17:36.959Z,100.00
2018-09-05T20:20:06.068Z,100.00
2018-09-05T20:22:35.205Z,100.00
2018-09-05T20:25:04.273Z,100.00
2018-09-05T20:27:33.386Z,100.00
2018-09-05T20:30:02.508Z,98.56
2018-09-05T20:32:35.265Z,98.81
2018-09-05T20:35:04.343Z,100.00
2018-09-05T20:40:09.251Z,97.47
2018-09-05T20:42:40.410Z,98.40
2018-09-05T20:45:09.490Z,100.00
2018-09-05T20:47:38.643Z,100.00
2018-09-05T20:52:43.436Z,100.00
2018-09-05T20:55:12.518Z,100.00
2018-09-05T20:57:41.586Z,100.00
2018-09-05T21:00:11.638Z,100.00
2018-09-05T21:02:40.720Z,100.00
2018-09-05T21:05:10.756Z,97.83
2018-09-05T21:07:39.820Z,100.00
2018-09-05T21:10:08.929Z,100.00
2018-09-05T21:15:13.722Z,100.00
2018-09-05T21:17:42.797Z,100.00
2018-09-05T21:20:11.859Z,100.00
2018-09-05T21:22:41.854Z,100.00
2018-09-05T21:25:10.922Z,100.00
2018-09-05T21:27:40.014Z,100.00
2018-09-05T21:30:10.051Z,100.00
2018-09-05T21:32:39.134Z,100.00
2018-09-05T21:35:10.175Z,100.00
2018-09-05T21:37:39.257Z,100.00
2018-09-05T21:40:08.371Z,100.00
2018-09-05T21:42:37.418Z,100.00
2018-09-05T21:45:06.494Z,100.00
2018-09-05T21:47:35.598Z,100.00
2018-09-05T21:50:09.275Z,100.00
2018-09-05T21:52:38.370Z,100.00
2018-09-05T21:55:07.439Z,100.00
2018-09-05T21:57:36.584Z,100.00
2018-09-05T22:00:05.647Z,100.00
2018-09-05T22:02:34.713Z,100.00
2018-09-05T22:05:03.800Z,100.00
2018-09-05T22:10:08.649Z,100.00
2018-09-05T22:12:37.734Z,99.35
2018-09-05T22:15:06.857Z,100.00
2018-09-05T22:17:40.842Z,100.00
2018-09-05T22:20:10.050Z,100.00
2018-09-05T22:22:39.151Z,100.00
2018-09-05T22:25:08.215Z,100.00
2018-09-05T22:27:37.301Z,100.00
2018-09-05T22:30:06.357Z,100.00
2018-09-05T22:37:46.987Z,100.00
2018-09-05T22:40:16.045Z,100.00
2018-09-05T22:42:45.119Z,100.00
2018-09-05T22:45:32.186Z,100.00
2018-09-05T22:48:01.271Z,100.00
2018-09-05T23:01:28.286Z,100.00
2018-09-05T23:03:57.399Z,100.00
2018-09-05T23:06:26.450Z,100.00
2018-09-05T23:08:55.520Z,100.00
2018-09-05T23:11:24.598Z,100.00
2018-09-05T23:14:19.486Z,100.00
2018-09-05T23:19:35.283Z,100.00
2018-09-05T23:22:04.358Z,100.00
2018-09-05T23:29:44.862Z,100.00
2018-09-05T23:37:25.483Z,100.00
2018-09-05T23:39:54.581Z,100.00
2018-09-05T23:42:23.658Z,100.00
2018-09-05T23:44:52.742Z,100.00
2018-09-05T23:47:22.762Z,100.00
2018-09-05T23:49:51.846Z,100.00
2018-09-05T23:54:56.653Z,100.00
2018-09-05T23:57:25.724Z,100.00
2018-09-05T23:59:54.806Z,100.00
